Time;durP1;ratioP1;P1;durP2;ratioP2;P2;SDS_P1;SDS_P2;PMS_P1;PMS_P2;Temp;Humidity;BMP_temperature;BMP_pressure;BME280_temperature;BME280_humidity;BME280_pressure;Samples;Min_cycle;Max_cycle;Signal;HPM_P1;HPM_P2
2021/04/26 00:00:46;;;;;;;12.40;5.18;;;2.00;99.90;;;;;;4160399;28;20030;-78
2021/04/26 00:02:47;;;;;;;12.95;5.32;;;2.10;99.90;;;;;;4165122;28;20044;-77
2021/04/26 00:04:48;;;;;;;10.68;5.00;;;2.10;99.90;;;;;;4149076;28;20049;-78
2021/04/26 00:06:49;;;;;;;12.98;5.60;;;2.20;99.90;;;;;;4161918;28;20040;-77
2021/04/26 00:08:50;;;;;;;12.95;5.97;;;2.10;99.90;;;;;;4163672;28;20033;-78
2021/04/26 00:10:51;;;;;;;14.68;5.70;;;2.10;99.90;;;;;;4152339;28;20048;-78
2021/04/26 00:12:53;;;;;;;17.73;6.28;;;2.00;99.90;;;;;;4148399;28;20515;-78
2021/04/26 00:14:54;;;;;;;23.55;5.95;;;1.90;99.90;;;;;;4179223;28;20080;-78
2021/04/26 00:16:55;;;;;;;12.75;4.88;;;1.90;99.90;;;;;;4150302;28;20108;-77
2021/04/26 00:18:56;;;;;;;14.82;5.80;;;1.90;99.90;;;;;;4163386;28;20025;-78
2021/04/26 00:20:57;;;;;;;13.95;5.15;;;1.90;99.90;;;;;;4168310;28;20025;-78
2021/04/26 00:23:00;;;;;;;19.15;6.07;;;1.80;99.90;;;;;;4163508;28;20373;-78
2021/04/26 00:25:01;;;;;;;15.85;5.93;;;1.80;99.90;;;;;;4146311;28;20034;-78
2021/04/26 00:27:02;;;;;;;9.43;5.25;;;1.80;99.90;;;;;;4178945;28;20029;-78
2021/04/26 00:29:03;;;;;;;11.63;5.05;;;1.70;99.90;;;;;;4163893;28;20045;-78
2021/04/26 00:31:04;;;;;;;21.38;5.90;;;1.70;99.90;;;;;;4145878;28;20077;-77
2021/04/26 00:33:05;;;;;;;11.55;5.22;;;1.70;99.90;;;;;;4169782;28;20381;-77
2021/04/26 00:35:08;;;;;;;12.85;6.40;;;1.60;99.90;;;;;;4146039;28;20069;-78
2021/04/26 00:37:09;;;;;;;20.80;5.88;;;1.70;99.90;;;;;;4145558;28;20576;-77
2021/04/26 00:39:10;;;;;;;15.00;6.03;;;1.70;99.90;;;;;;4142656;28;20030;-78
2021/04/26 00:41:11;;;;;;;9.77;6.05;;;1.70;99.90;;;;;;4146887;28;20508;-78
2021/04/26 00:43:12;;;;;;;15.93;8.13;;;1.60;99.90;;;;;;4147122;28;20037;-79
2021/04/26 00:45:20;;;;;;;20.63;5.75;;;1.60;99.90;;;;;;4155299;28;20571;-79
2021/04/26 00:47:21;;;;;;;17.65;8.20;;;1.50;99.90;;;;;;4176176;28;20072;-78
2021/04/26 00:49:21;;;;;;;12.18;6.75;;;1.50;99.90;;;;;;4175597;28;20075;-78
2021/04/26 00:51:22;;;;;;;20.83;5.72;;;1.50;99.90;;;;;;4153893;28;20057;-78
2021/04/26 00:53:23;;;;;;;18.42;5.97;;;1.50;99.90;;;;;;4146349;28;20042;-79
2021/04/26 00:55:27;;;;;;;11.70;5.68;;;1.40;99.90;;;;;;4174133;28;20471;-78
2021/04/26 00:57:28;;;;;;;17.52;6.50;;;1.50;99.90;;;;;;4149818;28;20036;-78
2021/04/26 00:59:30;;;;;;;17.15;7.03;;;1.40;99.90;;;;;;4173212;28;20042;-79
2021/04/26 01:01:31;;;;;;;14.40;5.60;;;1.50;99.90;;;;;;4178300;28;20040;-79
2021/04/26 01:03:33;;;;;;;17.15;6.30;;;1.50;99.90;;;;;;4163927;28;20361;-79
2021/04/26 01:05:36;;;;;;;16.40;6.18;;;1.40;99.90;;;;;;4162881;28;20049;-79
2021/04/26 01:07:39;;;;;;;13.80;6.72;;;1.40;99.90;;;;;;4162679;28;20053;-79
2021/04/26 01:09:39;;;;;;;13.00;5.97;;;1.40;99.90;;;;;;4179113;28;20033;-78
2021/04/26 01:12:27;;;;;;;14.07;6.18;;;1.50;99.90;;;;;;4157635;28;20041;-78
2021/04/26 01:14:43;;;;;;;17.27;6.30;;;1.50;99.90;;;;;;4160470;28;20030;-79
2021/04/26 01:16:57;;;;;;;22.48;8.02;;;1.50;99.90;;;;;;4160310;28;20057;-79
2021/04/26 01:19:11;;;;;;;10.98;5.68;;;1.50;99.90;;;;;;4162791;28;20025;-78
2021/04/26 01:22:05;;;;;;;17.52;6.25;;;1.50;99.90;;;;;;4147557;28;20141;-78
2021/04/26 01:24:36;;;;;;;18.90;7.70;;;1.50;99.90;;;;;;4170700;28;20431;-79
2021/04/26 01:26:55;;;;;;;13.50;5.90;;;1.50;99.90;;;;;;4178960;28;20044;-78
2021/04/26 01:29:15;;;;;;;12.32;6.45;;;1.40;99.90;;;;;;4145680;28;20057;-79
2021/04/26 01:31:20;;;;;;;17.27;6.32;;;1.30;99.90;;;;;;4153813;28;20444;-78
2021/04/26 01:33:26;;;;;;;18.52;6.85;;;1.20;99.90;;;;;;4179090;28;20115;-77
2021/04/26 01:35:29;;;;;;;16.00;6.53;;;1.20;99.90;;;;;;4162277;28;20068;-77
2021/04/26 01:37:34;;;;;;;11.93;5.80;;;1.20;99.90;;;;;;4150487;28;20072;-78
2021/04/26 01:39:37;;;;;;;17.50;6.20;;;1.20;99.90;;;;;;4162491;28;20033;-78
2021/04/26 01:41:39;;;;;;;17.67;6.20;;;1.20;99.90;;;;;;4162137;28;20069;-78
2021/04/26 01:43:42;;;;;;;13.10;6.60;;;1.20;99.90;;;;;;4162334;28;20065;-78
2021/04/26 01:45:46;;;;;;;14.85;6.00;;;1.20;99.90;;;;;;4178555;28;20123;-78
2021/04/26 01:47:53;;;;;;;12.57;5.97;;;1.20;99.90;;;;;;4151702;28;20533;-78
2021/04/26 01:49:55;;;;;;;19.65;8.10;;;1.20;99.90;;;;;;4145293;28;20419;-78
2021/04/26 01:51:56;;;;;;;20.25;6.93;;;1.20;99.90;;;;;;4145603;28;20568;-78
2021/04/26 01:53:56;;;;;;;13.10;5.78;;;1.10;99.90;;;;;;4161024;28;20021;-78
2021/04/26 01:55:59;;;;;;;11.48;6.07;;;1.10;99.90;;;;;;4145625;28;20058;-78
2021/04/26 01:58:01;;;;;;;14.50;6.20;;;1.20;99.90;;;;;;4145918;28;20026;-78
2021/04/26 02:00:12;;;;;;;14.43;6.25;;;1.20;99.90;;;;;;4143084;28;20120;-78
2021/04/26 02:02:16;;;;;;;14.25;6.25;;;1.20;99.90;;;;;;4145058;28;20157;-78
2021/04/26 02:04:19;;;;;;;13.15;6.28;;;1.10;99.90;;;;;;4177463;28;20629;-78
2021/04/26 02:06:22;;;;;;;17.33;6.50;;;1.10;99.90;;;;;;4143970;28;20034;-79
2021/04/26 02:08:24;;;;;;;20.02;7.38;;;1.10;99.90;;;;;;4145476;28;20038;-78
2021/04/26 02:10:28;;;;;;;13.73;6.15;;;1.20;99.90;;;;;;4145248;28;20033;-78
2021/04/26 02:12:29;;;;;;;14.77;6.53;;;1.10;99.90;;;;;;4161851;28;20036;-78
2021/04/26 02:14:30;;;;;;;12.05;6.22;;;1.10;99.90;;;;;;4144692;28;20034;-78
2021/04/26 02:16:31;;;;;;;16.88;6.00;;;1.10;99.90;;;;;;4176623;28;20377;-79
2021/04/26 02:18:33;;;;;;;12.25;5.65;;;1.20;99.90;;;;;;4128832;28;20031;-79
2021/04/26 02:20:34;;;;;;;14.48;6.63;;;1.10;99.90;;;;;;4145330;28;20030;-78
2021/04/26 02:22:36;;;;;;;17.70;5.90;;;1.10;99.90;;;;;;4146606;28;20033;-78
2021/04/26 02:24:36;;;;;;;16.45;6.13;;;1.10;99.90;;;;;;4142066;28;20042;-78
2021/04/26 02:26:37;;;;;;;15.43;7.63;;;1.00;99.90;;;;;;4143854;28;20466;-75
2021/04/26 02:28:38;;;;;;;13.00;5.95;;;1.00;99.90;;;;;;4146353;28;20036;-79
2021/04/26 02:30:39;;;;;;;16.20;6.95;;;1.00;99.90;;;;;;4178102;28;20123;-79
2021/04/26 02:33:10;;;;;;;14.60;5.32;;;1.00;99.90;;;;;;4145014;28;20030;-79
2021/04/26 02:35:14;;;;;;;11.65;5.20;;;0.90;99.90;;;;;;4143764;28;20117;-78
2021/04/26 02:37:31;;;;;;;12.15;5.88;;;0.80;99.90;;;;;;4144898;28;20030;-78
2021/04/26 02:39:36;;;;;;;15.55;5.82;;;0.70;99.90;;;;;;4146075;28;20033;-79
2021/04/26 02:41:41;;;;;;;10.88;6.43;;;0.80;99.90;;;;;;4140187;28;20429;-79
2021/04/26 02:43:48;;;;;;;16.02;5.68;;;0.70;99.90;;;;;;4175701;28;20128;-78
2021/04/26 02:45:59;;;;;;;16.45;6.20;;;0.70;99.90;;;;;;4146131;28;20030;-79
2021/04/26 02:48:00;;;;;;;14.63;5.85;;;0.70;99.90;;;;;;4136592;28;20046;-79
2021/04/26 02:50:05;;;;;;;16.58;5.63;;;0.70;99.90;;;;;;4146783;28;20112;-78
2021/04/26 02:52:06;;;;;;;12.35;5.70;;;0.60;99.90;;;;;;4167799;28;20033;-79
2021/04/26 02:54:08;;;;;;;14.32;5.45;;;0.60;99.90;;;;;;4160795;28;20034;-78
2021/04/26 02:56:14;;;;;;;13.13;6.07;;;0.50;99.90;;;;;;4160982;28;20390;-79
2021/04/26 02:58:15;;;;;;;11.35;5.55;;;0.60;99.90;;;;;;4177843;28;20041;-78
2021/04/26 03:00:19;;;;;;;19.90;5.80;;;0.70;99.90;;;;;;4161339;28;20053;-77
2021/04/26 03:02:21;;;;;;;22.77;5.95;;;0.60;99.90;;;;;;4158837;28;20048;-79
2021/04/26 03:04:23;;;;;;;13.93;6.10;;;0.70;99.90;;;;;;4146026;28;20044;-79
2021/04/26 03:06:24;;;;;;;14.43;5.90;;;0.70;99.90;;;;;;4142282;28;20033;-78
2021/04/26 03:08:27;;;;;;;17.95;7.88;;;0.70;99.90;;;;;;4160235;28;20423;-79
2021/04/26 03:10:29;;;;;;;25.60;7.03;;;0.80;99.90;;;;;;4155636;28;20588;-78
2021/04/26 03:12:40;;;;;;;13.00;8.38;;;0.80;99.90;;;;;;4174874;28;20029;-79
2021/04/26 03:14:41;;;;;;;9.85;6.03;;;0.70;99.90;;;;;;4158145;28;20041;-77
2021/04/26 03:16:42;;;;;;;10.68;6.35;;;0.70;99.90;;;;;;4163153;28;20048;-76
2021/04/26 03:18:43;;;;;;;17.58;7.03;;;0.70;99.90;;;;;;4152836;28;20060;-78
2021/04/26 03:20:45;;;;;;;12.15;5.07;;;0.60;99.90;;;;;;4161065;28;20053;-78
2021/04/26 03:22:48;;;;;;;19.58;8.55;;;0.50;99.90;;;;;;4173619;28;20404;-78
2021/04/26 03:24:50;;;;;;;11.75;5.70;;;0.50;99.90;;;;;;4144502;28;20053;-78
2021/04/26 03:26:54;;;;;;;13.15;5.95;;;0.50;99.90;;;;;;4171463;28;20627;-79
2021/04/26 03:28:55;;;;;;;19.65;6.43;;;0.50;99.90;;;;;;4165820;28;20412;-79
2021/04/26 03:30:58;;;;;;;14.45;5.80;;;0.50;99.90;;;;;;4166467;28;20084;-79
2021/04/26 03:33:00;;;;;;;17.05;6.63;;;0.50;99.90;;;;;;4160833;28;20481;-78
2021/04/26 03:35:00;;;;;;;16.88;6.82;;;0.50;99.90;;;;;;4177167;28;20086;-79
2021/04/26 03:37:01;;;;;;;12.55;6.55;;;0.50;99.90;;;;;;4153296;28;20046;-79
2021/04/26 03:39:05;;;;;;;16.13;6.00;;;0.40;99.90;;;;;;4144673;28;20057;-79
2021/04/26 03:41:07;;;;;;;15.23;6.68;;;0.40;99.90;;;;;;4160844;28;20030;-77
2021/04/26 03:43:08;;;;;;;20.38;6.35;;;0.50;99.90;;;;;;4160852;28;20468;-76
2021/04/26 03:45:13;;;;;;;14.10;6.88;;;0.50;99.90;;;;;;4162294;28;20087;-79
2021/04/26 03:47:15;;;;;;;17.20;7.88;;;0.60;99.90;;;;;;4150719;28;20535;-79
2021/04/26 03:49:15;;;;;;;20.23;6.47;;;0.60;99.90;;;;;;4160469;28;20038;-78
2021/04/26 03:51:16;;;;;;;19.83;7.30;;;0.60;99.90;;;;;;4160776;28;20148;-78
2021/04/26 03:53:17;;;;;;;17.88;6.63;;;0.60;99.90;;;;;;4144306;28;20045;-77
2021/04/26 03:55:21;;;;;;;20.45;7.25;;;0.70;99.90;;;;;;4164809;28;20392;-77
2021/04/26 03:57:22;;;;;;;14.60;6.75;;;0.70;99.90;;;;;;4165040;28;20476;-78
2021/04/26 03:59:23;;;;;;;12.73;6.75;;;0.60;99.90;;;;;;4164410;28;20024;-77
2021/04/26 04:01:24;;;;;;;18.52;6.70;;;0.60;99.90;;;;;;4162035;28;20468;-77
2021/04/26 04:03:25;;;;;;;17.70;7.07;;;0.50;99.90;;;;;;4187753;28;20033;-78
2021/04/26 04:05:26;;;;;;;14.90;5.65;;;0.50;99.90;;;;;;4162256;28;20108;-76
2021/04/26 04:07:27;;;;;;;17.80;6.43;;;0.50;99.90;;;;;;4175176;28;20037;-78
2021/04/26 04:09:28;;;;;;;15.25;7.28;;;0.40;99.90;;;;;;4157282;28;20099;-78
2021/04/26 04:11:28;;;;;;;13.75;6.50;;;0.40;99.90;;;;;;4160689;28;20029;-77
2021/04/26 04:13:29;;;;;;;17.50;6.68;;;0.30;99.90;;;;;;4159334;28;20029;-78
2021/04/26 04:15:30;;;;;;;14.13;6.72;;;0.30;99.90;;;;;;4175176;28;20033;-77
2021/04/26 04:17:31;;;;;;;13.95;6.78;;;0.40;99.90;;;;;;4162474;28;20040;-78
2021/04/26 04:19:32;;;;;;;17.95;6.80;;;0.40;99.90;;;;;;4161358;28;20476;-78
2021/04/26 04:21:33;;;;;;;16.65;6.82;;;0.40;99.90;;;;;;4176419;28;20494;-78
2021/04/26 04:23:34;;;;;;;19.80;7.13;;;0.40;99.90;;;;;;4158352;28;20061;-76
2021/04/26 04:25:35;;;;;;;14.88;8.18;;;0.40;99.90;;;;;;4145848;28;20608;-78
2021/04/26 04:27:37;;;;;;;20.48;7.88;;;0.30;99.90;;;;;;4162513;28;20087;-78
2021/04/26 04:29:38;;;;;;;18.35;7.13;;;0.30;99.90;;;;;;4151625;28;20510;-78
2021/04/26 04:31:39;;;;;;;17.58;7.63;;;0.30;99.90;;;;;;4165092;28;20033;-78
2021/04/26 04:33:40;;;;;;;17.40;8.10;;;0.40;99.90;;;;;;4178577;28;20468;-77
2021/04/26 04:35:41;;;;;;;13.80;7.30;;;0.40;99.90;;;;;;4145653;28;20099;-77
2021/04/26 04:37:41;;;;;;;13.40;7.78;;;0.50;99.90;;;;;;4179675;28;20041;-77
2021/04/26 04:39:42;;;;;;;17.85;6.60;;;0.40;99.90;;;;;;4163209;28;20029;-78
2021/04/26 04:41:43;;;;;;;15.40;7.32;;;0.50;99.90;;;;;;4167452;28;20033;-77
2021/04/26 04:43:45;;;;;;;18.08;7.30;;;0.60;99.90;;;;;;4171807;28;20037;-79
2021/04/26 04:45:46;;;;;;;16.10;7.85;;;0.60;99.90;;;;;;4163145;28;20030;-77
2021/04/26 04:47:46;;;;;;;19.95;6.95;;;0.60;99.90;;;;;;4163072;28;20157;-79
2021/04/26 04:49:47;;;;;;;22.20;7.63;;;0.60;99.90;;;;;;4165951;28;20638;-77
2021/04/26 04:51:48;;;;;;;19.10;7.78;;;0.60;99.90;;;;;;4160359;28;20041;-79
2021/04/26 04:53:49;;;;;;;10.98;6.47;;;0.60;99.90;;;;;;4159624;28;20128;-77
2021/04/26 04:55:50;;;;;;;21.33;7.70;;;0.60;99.90;;;;;;4176429;28;20119;-78
2021/04/26 04:57:51;;;;;;;11.85;6.93;;;0.60;99.90;;;;;;4162424;28;20437;-78
2021/04/26 04:59:52;;;;;;;16.85;7.40;;;0.70;99.90;;;;;;4159302;28;20457;-78
2021/04/26 05:01:52;;;;;;;15.30;6.82;;;0.80;99.90;;;;;;4159545;28;20041;-78
2021/04/26 05:03:53;;;;;;;18.08;7.32;;;0.80;99.90;;;;;;4167278;28;20099;-76
2021/04/26 05:05:54;;;;;;;21.45;7.50;;;0.80;99.90;;;;;;4163335;28;20134;-77
2021/04/26 05:07:55;;;;;;;12.52;7.72;;;0.90;99.90;;;;;;4162642;28;20065;-78
2021/04/26 05:09:56;;;;;;;19.10;7.28;;;1.00;99.90;;;;;;4158700;28;20071;-78
2021/04/26 05:11:58;;;;;;;14.82;7.07;;;1.10;99.90;;;;;;4177386;28;20037;-77
2021/04/26 05:14:00;;;;;;;17.90;9.20;;;1.20;99.90;;;;;;4170553;28;20056;-78
2021/04/26 05:16:01;;;;;;;14.45;7.75;;;1.20;99.90;;;;;;4146227;28;20122;-78
2021/04/26 05:18:02;;;;;;;21.15;7.45;;;1.30;99.90;;;;;;4159570;28;20041;-79
2021/04/26 05:20:05;;;;;;;14.20;6.75;;;1.30;99.90;;;;;;4162470;28;20038;-79
2021/04/26 05:22:06;;;;;;;21.70;7.28;;;1.40;99.90;;;;;;4147889;28;20066;-78
2021/04/26 05:24:07;;;;;;;13.20;7.55;;;1.40;99.90;;;;;;4161620;28;20057;-78
2021/04/26 05:26:08;;;;;;;18.85;7.43;;;1.40;99.90;;;;;;4178558;28;20111;-78
2021/04/26 05:28:08;;;;;;;24.17;7.63;;;1.50;99.90;;;;;;4163787;28;20135;-78
2021/04/26 05:30:10;;;;;;;21.23;8.15;;;1.50;99.90;;;;;;4160470;28;20025;-78
2021/04/26 05:32:11;;;;;;;13.00;6.28;;;1.50;99.90;;;;;;4146563;28;20050;-78
2021/04/26 05:34:12;;;;;;;18.52;7.80;;;1.60;99.90;;;;;;4168057;28;20037;-79
2021/04/26 05:36:13;;;;;;;17.77;7.07;;;1.70;99.90;;;;;;4143942;28;20068;-77
2021/04/26 05:38:16;;;;;;;13.18;7.13;;;1.70;99.90;;;;;;4160140;28;20045;-79
2021/04/26 05:40:17;;;;;;;;;;;1.70;99.90;;;;;;4137569;28;20039;-79
2021/04/26 05:42:18;;;;;;;21.17;6.80;;;1.80;99.90;;;;;;4171544;28;20453;-76
2021/04/26 05:44:19;;;;;;;17.08;7.22;;;1.90;99.90;;;;;;4137434;28;20033;-78
2021/04/26 05:46:20;;;;;;;15.88;6.40;;;1.90;99.90;;;;;;4149296;28;20421;-77
2021/04/26 05:48:21;;;;;;;23.38;7.78;;;1.90;99.90;;;;;;4160780;28;20096;-75
2021/04/26 05:50:21;;;;;;;21.52;7.43;;;2.00;99.90;;;;;;4161561;28;20514;-77
2021/04/26 05:52:22;;;;;;;14.90;6.95;;;2.10;99.90;;;;;;4145360;28;20078;-77
2021/04/26 05:54:23;;;;;;;15.98;7.13;;;2.10;99.90;;;;;;4141430;28;20033;-78
2021/04/26 05:56:24;;;;;;;12.07;5.88;;;2.20;99.90;;;;;;4178014;28;20032;-78
2021/04/26 05:58:26;;;;;;;16.60;5.90;;;2.30;99.90;;;;;;4149693;28;20041;-78
2021/04/26 06:00:27;;;;;;;13.30;6.53;;;2.40;99.90;;;;;;4160945;28;20038;-79
2021/04/26 06:02:28;;;;;;;12.55;5.63;;;2.40;99.90;;;;;;4143165;28;20064;-77
2021/04/26 06:04:28;;;;;;;17.23;5.95;;;2.50;99.90;;;;;;4159599;28;20052;-79
2021/04/26 06:06:29;;;;;;;14.63;5.90;;;2.60;99.90;;;;;;4149448;28;20162;-77
2021/04/26 06:08:30;;;;;;;15.75;5.75;;;2.70;99.90;;;;;;4158149;28;20038;-79
2021/04/26 06:10:31;;;;;;;14.32;6.20;;;2.80;99.90;;;;;;4163305;28;20052;-79
2021/04/26 06:12:33;;;;;;;14.65;7.00;;;2.80;99.90;;;;;;4141808;28;20121;-78
2021/04/26 06:14:33;;;;;;;16.05;6.50;;;2.90;99.90;;;;;;4162735;28;20106;-78
2021/04/26 06:16:36;;;;;;;16.25;5.80;;;3.00;99.90;;;;;;4145596;28;20045;-77
2021/04/26 06:18:37;;;;;;;16.33;5.90;;;3.10;99.90;;;;;;4151885;28;20042;-78
2021/04/26 06:20:40;;;;;;;16.60;5.38;;;3.20;99.90;;;;;;4168705;28;20553;-79
2021/04/26 06:22:42;;;;;;;11.35;5.22;;;3.30;99.90;;;;;;4170660;28;20492;-78
2021/04/26 06:24:42;;;;;;;15.35;5.65;;;3.30;99.90;;;;;;4160594;28;20029;-77
2021/04/26 06:26:43;;;;;;;11.27;6.03;;;3.40;99.90;;;;;;4165063;28;20495;-78
2021/04/26 06:28:44;;;;;;;9.68;5.32;;;3.50;99.90;;;;;;4157735;28;20041;-78
2021/04/26 06:30:46;;;;;;;10.75;5.85;;;3.50;99.90;;;;;;4166349;28;20086;-81
2021/04/26 06:32:47;;;;;;;11.87;5.60;;;3.60;99.90;;;;;;4159738;28;20029;-80
2021/04/26 06:34:48;;;;;;;12.32;6.03;;;3.70;99.90;;;;;;4160204;28;20818;-80
2021/04/26 06:36:49;;;;;;;19.85;6.30;;;3.80;99.90;;;;;;4164068;28;20044;-80
2021/04/26 06:38:50;;;;;;;11.00;5.63;;;3.90;99.90;;;;;;4180066;28;20075;-79
2021/04/26 06:40:51;;;;;;;15.00;5.97;;;4.00;99.90;;;;;;4169807;28;20080;-85
2021/04/26 06:42:52;;;;;;;9.45;5.35;;;4.10;99.90;;;;;;4166891;28;20064;-84
2021/04/26 06:44:53;;;;;;;16.70;6.10;;;4.10;99.90;;;;;;4143481;28;20065;-82
2021/04/26 06:46:53;;;;;;;18.65;5.97;;;4.20;99.90;;;;;;4172131;28;20044;-82
2021/04/26 06:48:54;;;;;;;11.88;6.18;;;4.30;99.90;;;;;;4153841;28;20034;-85
2021/04/26 06:50:57;;;;;;;9.35;5.22;;;4.40;99.90;;;;;;4161806;28;20172;-83
2021/04/26 06:52:58;;;;;;;6.65;5.60;;;4.40;99.90;;;;;;4134154;28;20048;-81
2021/04/26 06:54:59;;;;;;;10.07;5.50;;;4.60;99.90;;;;;;4161642;28;20033;-84
2021/04/26 06:57:00;;;;;;;11.98;5.72;;;4.60;99.90;;;;;;4149106;28;20034;-82
2021/04/26 06:59:01;;;;;;;15.60;4.72;;;4.70;99.90;;;;;;4158735;28;20049;-83
2021/04/26 07:01:02;;;;;;;13.30;4.97;;;4.80;99.90;;;;;;4161887;28;20033;-82
2021/04/26 07:03:03;;;;;;;13.85;5.35;;;4.90;99.90;;;;;;4151667;28;20036;-83
2021/04/26 07:05:07;;;;;;;13.65;5.60;;;5.00;99.90;;;;;;4155969;28;20250;-82
2021/04/26 07:07:08;;;;;;;10.25;4.68;;;5.10;99.90;;;;;;4159945;28;20052;-83
2021/04/26 07:09:09;;;;;;;12.88;4.97;;;5.10;99.90;;;;;;4160299;28;20037;-83
2021/04/26 07:11:09;;;;;;;7.32;4.53;;;5.30;99.90;;;;;;4160702;28;20042;-83
2021/04/26 07:13:11;;;;;;;18.63;4.90;;;5.30;99.90;;;;;;4174215;28;20032;-82
2021/04/26 07:15:17;;;;;;;16.42;5.18;;;5.40;99.90;;;;;;4160733;28;20033;-82
2021/04/26 07:17:19;;;;;;;10.70;4.93;;;5.50;99.90;;;;;;4159892;28;20091;-82
2021/04/26 07:19:20;;;;;;;11.43;4.93;;;5.60;99.90;;;;;;4162263;28;20041;-81
2021/04/26 07:21:21;;;;;;;10.93;3.92;;;5.70;99.90;;;;;;4148621;28;20041;-79
2021/04/26 07:23:22;;;;;;;8.30;4.18;;;5.70;99.90;;;;;;4171271;28;20076;-81
2021/04/26 07:25:22;;;;;;;8.27;4.30;;;5.80;99.90;;;;;;4176978;28;20041;-82
2021/04/26 07:27:24;;;;;;;7.78;4.32;;;5.90;99.90;;;;;;4167060;28;20494;-83
2021/04/26 07:29:24;;;;;;;12.48;5.07;;;6.00;99.90;;;;;;4144474;28;20131;-82
2021/04/26 07:31:25;;;;;;;11.65;5.82;;;6.10;99.90;;;;;;4155357;28;20543;-81
2021/04/26 07:33:26;;;;;;;10.02;4.07;;;6.30;99.90;;;;;;4155051;28;20527;-81
2021/04/26 07:35:27;;;;;;;9.77;4.25;;;6.40;99.90;;;;;;4163071;28;20049;-81
2021/04/26 07:37:28;;;;;;;10.70;3.60;;;6.50;99.90;;;;;;4160357;28;20060;-80
2021/04/26 07:39:31;;;;;;;13.95;4.50;;;6.50;99.90;;;;;;4177276;28;20036;-81
2021/04/26 07:41:32;;;;;;;8.60;4.05;;;6.60;99.90;;;;;;4152389;28;20443;-78
2021/04/26 07:43:33;;;;;;;10.43;4.78;;;6.70;99.90;;;;;;4161187;28;20084;-80
2021/04/26 07:45:33;;;;;;;10.00;4.25;;;6.80;99.90;;;;;;4147407;28;20099;-83
2021/04/26 07:47:34;;;;;;;12.20;4.35;;;6.90;99.90;;;;;;4154114;28;20033;-81
2021/04/26 07:49:35;;;;;;;11.38;5.05;;;7.00;99.90;;;;;;4152960;28;20037;-82
2021/04/26 07:51:36;;;;;;;8.02;3.80;;;7.10;99.90;;;;;;4139142;28;20100;-81
2021/04/26 07:53:38;;;;;;;10.45;4.55;;;7.20;99.90;;;;;;4175001;28;20710;-80
2021/04/26 07:55:38;;;;;;;10.02;3.53;;;7.30;99.90;;;;;;4179044;28;20496;-82
2021/04/26 07:57:40;;;;;;;7.38;3.60;;;7.50;99.90;;;;;;4163310;28;20049;-82
2021/04/26 07:59:41;;;;;;;6.03;3.58;;;7.60;99.90;;;;;;4159884;28;20091;-82
2021/04/26 08:01:42;;;;;;;8.60;4.30;;;7.70;99.90;;;;;;4158452;28;20457;-79
2021/04/26 08:03:44;;;;;;;9.25;4.13;;;7.80;99.90;;;;;;4139289;28;20034;-82
2021/04/26 08:05:44;;;;;;;9.45;4.00;;;7.90;99.90;;;;;;4161760;28;20083;-79
2021/04/26 08:07:45;;;;;;;6.60;4.28;;;7.90;99.90;;;;;;4151555;28;20033;-78
2021/04/26 08:09:46;;;;;;;5.55;3.75;;;8.00;99.90;;;;;;4159887;28;20157;-79
2021/04/26 08:11:47;;;;;;;7.70;4.22;;;8.10;99.90;;;;;;4162124;28;20083;-78
2021/04/26 08:13:48;;;;;;;12.07;4.53;;;8.20;99.90;;;;;;4157308;28;20041;-82
2021/04/26 08:15:49;;;;;;;8.27;4.32;;;8.20;99.90;;;;;;4145453;28;20049;-81
2021/04/26 08:17:50;;;;;;;6.85;4.35;;;8.30;99.90;;;;;;4129494;28;20061;-80
2021/04/26 08:19:51;;;;;;;10.63;3.72;;;8.40;99.90;;;;;;4145392;28;20038;-80
2021/04/26 08:21:52;;;;;;;7.35;4.32;;;8.60;99.90;;;;;;4152423;28;20041;-81
2021/04/26 08:23:56;;;;;;;11.63;4.15;;;8.60;99.90;;;;;;4153428;28;20373;-81
2021/04/26 08:25:57;;;;;;;9.25;4.68;;;8.70;99.90;;;;;;4162288;28;20172;-81
2021/04/26 08:27:59;;;;;;;7.93;4.20;;;9.20;99.90;;;;;;4159694;28;20025;-80
2021/04/26 08:30:00;;;;;;;10.52;3.95;;;8.80;99.90;;;;;;4155641;28;20164;-81
2021/04/26 08:32:01;;;;;;;6.57;3.33;;;9.00;99.90;;;;;;4144998;28;20030;-79
2021/04/26 08:34:02;;;;;;;14.02;5.00;;;9.20;99.90;;;;;;4150766;28;20044;-81
2021/04/26 08:36:03;;;;;;;7.30;4.18;;;9.30;99.90;;;;;;4160565;28;20423;-83
2021/04/26 08:38:04;;;;;;;10.20;4.45;;;9.40;99.90;;;;;;4143458;28;20041;-82
2021/04/26 08:40:07;;;;;;;6.38;3.92;;;9.50;99.90;;;;;;4148403;28;20041;-82
2021/04/26 08:42:08;;;;;;;13.70;4.00;;;9.50;99.90;;;;;;4168149;28;20472;-82
2021/04/26 08:44:10;;;;;;;11.75;4.38;;;9.60;99.90;;;;;;4145228;28;20100;-81
2021/04/26 08:46:11;;;;;;;7.35;4.13;;;9.80;99.90;;;;;;4149716;28;20030;-82
2021/04/26 08:48:12;;;;;;;6.65;3.45;;;9.90;99.90;;;;;;4144535;28;20046;-81
2021/04/26 08:50:13;;;;;;;8.18;3.50;;;10.00;99.90;;;;;;4149674;28;20586;-82
2021/04/26 08:52:14;;;;;;;10.02;3.80;;;10.10;99.90;;;;;;4161563;28;21031;-83
2021/04/26 08:54:18;;;;;;;6.32;4.13;;;10.10;99.90;;;;;;4144629;28;20104;-81
2021/04/26 08:56:19;;;;;;;13.50;4.22;;;10.20;99.90;;;;;;4135085;28;20038;-83
2021/04/26 08:58:21;;;;;;;10.88;4.15;;;10.40;99.90;;;;;;4160999;28;20591;-82
2021/04/26 09:00:22;;;;;;;5.63;3.85;;;10.60;99.90;;;;;;4129604;28;20054;-81
2021/04/26 09:02:23;;;;;;;5.85;3.58;;;10.80;99.90;;;;;;4159626;28;20065;-82
2021/04/26 09:04:24;;;;;;;15.13;4.00;;;11.10;99.90;;;;;;4143738;28;20049;-81
2021/04/26 09:06:25;;;;;;;11.68;3.65;;;11.00;99.90;;;;;;4159987;28;20037;-81
2021/04/26 09:08:27;;;;;;;6.35;3.63;;;11.20;99.90;;;;;;4129846;28;20049;-82
2021/04/26 09:10:50;;;;;;;5.72;4.15;;;11.20;99.90;;;;;;4134332;28;20038;-80
2021/04/26 09:12:52;;;;;;;6.18;3.60;;;11.30;99.90;;;;;;4143057;28;20043;-83
2021/04/26 09:15:04;;;;;;;5.95;4.05;;;11.30;99.90;;;;;;4175793;28;20063;-81
2021/04/26 09:17:24;;;;;;;5.50;4.07;;;11.30;99.90;;;;;;4139031;28;20034;-82
2021/04/26 09:19:29;;;;;;;10.07;4.28;;;11.60;99.90;;;;;;4141966;28;20053;-80
2021/04/26 09:21:37;;;;;;;6.90;4.70;;;11.80;99.90;;;;;;4163735;28;20037;-80
2021/04/26 09:23:38;;;;;;;7.07;3.80;;;11.80;99.90;;;;;;4163862;28;20122;-80
2021/04/26 09:25:42;;;;;;;7.25;4.43;;;12.50;99.90;;;;;;4128429;28;20134;-81
2021/04/26 09:28:11;;;;;;;8.15;5.07;;;12.00;99.90;;;;;;4145203;28;20079;-81
2021/04/26 09:30:12;;;;;;;8.25;3.90;;;12.50;99.90;;;;;;4145243;28;20041;-82
2021/04/26 09:32:16;;;;;;;11.73;4.53;;;12.70;99.90;;;;;;4134915;28;20451;-81
2021/04/26 09:34:47;;;;;;;12.70;4.38;;;13.30;99.90;;;;;;4128204;28;20042;-82
2021/04/26 09:36:58;;;;;;;8.90;4.60;;;12.90;99.90;;;;;;4116328;28;20134;-83
2021/04/26 09:39:03;;;;;;;8.30;4.03;;;12.80;99.90;;;;;;4146151;28;20592;-82
2021/04/26 09:41:29;;;;;;;8.98;3.78;;;13.20;99.90;;;;;;4156957;28;20060;-80
2021/04/26 09:43:29;;;;;;;12.65;4.50;;;13.50;99.90;;;;;;4142931;28;20034;-80
2021/04/26 09:45:39;;;;;;;5.32;3.53;;;13.50;99.90;;;;;;4132821;28;20037;-81
2021/04/26 09:47:40;;;;;;;10.45;4.00;;;13.60;99.90;;;;;;4144652;28;20041;-83
2021/04/26 09:49:40;;;;;;;8.98;4.82;;;13.70;99.90;;;;;;4160943;28;20049;-84
2021/04/26 09:51:44;;;;;;;9.05;4.70;;;13.80;99.90;;;;;;4137888;28;20045;-81
2021/04/26 09:53:54;;;;;;;6.13;4.20;;;13.90;99.90;;;;;;4138142;28;20585;-79
2021/04/26 09:55:56;;;;;;;8.82;4.30;;;14.10;99.90;;;;;;4127370;28;20441;-79
2021/04/26 09:57:57;;;;;;;8.77;4.37;;;14.30;97.20;;;;;;4144234;28;20669;-80
2021/04/26 09:59:58;;;;;;;6.85;4.47;;;14.20;96.20;;;;;;4160318;28;20084;-80
2021/04/26 10:02:09;;;;;;;10.90;4.18;;;14.40;96.50;;;;;;4143702;28;20169;-80
2021/04/26 10:04:13;;;;;;;9.93;4.05;;;14.50;93.90;;;;;;4144600;28;20030;-80
2021/04/26 10:06:16;;;;;;;9.35;4.65;;;14.70;95.30;;;;;;4168428;28;20052;-76
2021/04/26 10:08:17;;;;;;;4.72;4.28;;;14.70;91.30;;;;;;4159640;28;20046;-81
2021/04/26 10:10:17;;;;;;;6.93;4.25;;;14.90;91.00;;;;;;4158996;28;20048;-80
2021/04/26 10:12:18;;;;;;;6.95;4.00;;;15.00;91.20;;;;;;4161368;28;20412;-79
2021/04/26 10:14:19;;;;;;;8.70;4.32;;;15.30;91.30;;;;;;4153008;28;20037;-80
2021/04/26 10:16:32;;;;;;;7.85;4.50;;;15.50;87.20;;;;;;4143312;28;20130;-81
2021/04/26 10:18:40;;;;;;;6.13;4.25;;;15.60;86.60;;;;;;4163097;28;20072;-80
2021/04/26 10:20:43;;;;;;;6.38;4.00;;;15.70;86.20;;;;;;4176497;28;20520;-80
2021/04/26 10:22:45;;;;;;;9.48;4.32;;;16.00;84.80;;;;;;4159495;28;20124;-78
2021/04/26 10:24:54;;;;;;;6.75;4.03;;;16.00;83.90;;;;;;4160338;28;20037;-81
2021/04/26 10:27:01;;;;;;;12.27;5.28;;;16.30;78.00;;;;;;4141732;28;20042;-80
2021/04/26 10:29:28;;;;;;;9.13;4.45;;;16.30;76.40;;;;;;4175940;28;20041;-80
2021/04/26 10:31:28;;;;;;;10.27;4.50;;;16.30;75.80;;;;;;4157356;28;20036;-79
2021/04/26 10:34:00;;;;;;;8.13;4.35;;;16.70;73.80;;;;;;4159585;28;20034;-80
2021/04/26 10:36:00;;;;;;;8.10;4.40;;;16.60;72.00;;;;;;4172259;28;20060;-79
2021/04/26 10:38:01;;;;;;;5.55;3.60;;;16.60;72.60;;;;;;4174993;28;20300;-78
2021/04/26 10:40:13;;;;;;;11.50;5.35;;;16.80;71.30;;;;;;4159766;28;20531;-77
2021/04/26 10:42:13;;;;;;;9.65;4.05;;;16.80;71.60;;;;;;4172363;28;20424;-80